Time;durP1;ratioP1;P1;durP2;ratioP2;P2;SDS_P1;SDS_P2;PMS_P1;PMS_P2;Temp;Humidity;BMP_temperature;BMP_pressure;BME280_temperature;BME280_humidity;BME280_pressure;Samples;Min_cycle;Max_cycle;Signal;HPM_P1;HPM_P2
2023/03/07 00:03:47;;;;;;;;;;;;;;;18.25;30.66;94469.28;10458629;28;2666;-52
2023/03/07 00:08:51;;;;;;;;;;;;;;;18.24;30.71;94474.81;10476534;28;3308;-54
2023/03/07 00:13:52;;;;;;;;;;;;;;;18.22;30.67;94469.06;10477975;28;3189;-54
2023/03/07 00:18:53;;;;;;;;;;;;;;;18.19;30.56;94469.66;10489947;28;3363;-53
2023/03/07 00:23:53;;;;;;;;;;;;;;;18.18;30.72;94462.84;10474710;28;3587;-52
2023/03/07 00:28:54;;;;;;;;;;;;;;;18.15;30.68;94460.81;10479196;28;3264;-53
2023/03/07 00:33:55;;;;;;;;;;;;;;;18.13;30.72;94455.09;10470935;28;3253;-53
2023/03/07 00:38:56;;;;;;;;;;;;;;;18.12;30.55;94448.28;10460050;28;3283;-54
2023/03/07 00:43:56;;;;;;;;;;;;;;;18.09;30.59;94441.78;10473525;28;3305;-54
2023/03/07 00:48:57;;;;;;;;;;;;;;;18.07;30.61;94443.91;10480053;28;3240;-52
2023/03/07 00:53:59;;;;;;;;;;;;;;;18.06;30.57;94444.97;10465178;28;2802;-54
2023/03/07 00:59:00;;;;;;;;;;;;;;;18.04;30.65;94431.38;10471837;28;3387;-53
2023/03/07 01:04:01;;;;;;;;;;;;;;;18.03;30.64;94432.44;10475233;28;2868;-54
2023/03/07 01:09:03;;;;;;;;;;;;;;;18.00;30.54;94426.97;10474647;28;3683;-53
2023/03/07 01:14:05;;;;;;;;;;;;;;;18.00;30.47;94419.91;10470943;28;2667;-52
2023/03/07 01:19:06;;;;;;;;;;;;;;;17.97;30.57;94417.84;10468014;28;3415;-54
2023/03/07 01:24:07;;;;;;;;;;;;;;;17.97;30.47;94414.47;10471712;28;3268;-54
2023/03/07 01:29:07;;;;;;;;;;;;;;;17.96;30.50;94412.91;10436362;28;3271;-52
2023/03/07 01:34:08;;;;;;;;;;;;;;;17.95;30.45;94403.50;10465641;28;3281;-54
2023/03/07 01:39:13;;;;;;;;;;;;;;;17.92;30.42;94404.06;10473811;28;3300;-53
2023/03/07 01:44:18;;;;;;;;;;;;;;;17.91;30.21;94400.66;10465575;28;3295;-55
2023/03/07 01:49:20;;;;;;;;;;;;;;;17.89;30.33;94400.94;10479451;28;2804;-51
2023/03/07 01:54:20;;;;;;;;;;;;;;;17.88;30.29;94391.53;10483693;28;3448;-52
2023/03/07 01:59:27;;;;;;;;;;;;;;;17.87;30.34;94389.97;10469782;28;3401;-54
2023/03/07 02:04:29;;;;;;;;;;;;;;;17.86;30.22;94385.81;10471597;28;3310;-52
2023/03/07 02:09:29;;;;;;;;;;;;;;;17.84;30.27;94369.59;10477969;28;2787;-53
2023/03/07 02:14:30;;;;;;;;;;;;;;;17.83;30.26;94375.09;10454054;28;3330;-52
2023/03/07 02:19:47;;;;;;;;;;;;;;;17.82;30.27;94365.69;10469777;28;3319;-55
2023/03/07 02:25:01;;;;;;;;;;;;;;;17.81;30.25;94364.13;10469932;28;2815;-51
2023/03/07 02:30:02;;;;;;;;;;;;;;;17.80;30.10;94371.19;10474095;28;3438;-51
2023/03/07 02:35:17;;;;;;;;;;;;;;;17.78;30.22;94378.56;10475659;28;3268;-53
2023/03/07 02:40:19;;;;;;;;;;;;;;;17.76;30.07;94367.59;10460871;28;3336;-54
2023/03/07 02:45:19;;;;;;;;;;;;;;;17.75;30.08;94373.16;10462836;28;3296;-53
2023/03/07 02:50:20;;;;;;;;;;;;;;;17.74;29.93;94374.22;10463907;28;2589;-54
2023/03/07 02:55:25;;;;;;;;;;;;;;;17.72;29.91;94379.72;10464696;28;3397;-52
2023/03/07 03:00:25;;;;;;;;;;;;;;;17.72;30.01;94374.50;10469802;28;3252;-54
2023/03/07 03:05:26;;;;;;;;;;;;;;;17.69;29.94;94359.34;10468173;28;3293;-52
2023/03/07 03:10:27;;;;;;;;;;;;;;;17.68;29.86;94368.28;10464275;28;2782;-53
2023/03/07 03:15:28;;;;;;;;;;;;;;;17.68;29.78;94368.28;10468711;28;3299;-53
2023/03/07 03:20:39;;;;;;;;;;;;;;;17.66;29.88;94359.91;10465265;28;3368;-55
2023/03/07 03:25:39;;;;;;;;;;;;;;;17.67;29.83;94358.88;10470638;28;2730;-53
2023/03/07 03:30:41;;;;;;;;;;;;;;;17.65;29.79;94353.13;10468291;28;3348;-52
2023/03/07 03:35:42;;;;;;;;;;;;;;;17.65;29.77;94354.97;10467680;28;2708;-49
2023/03/07 03:40:43;;;;;;;;;;;;;;;17.63;29.59;94351.88;10470702;28;3649;-53
2023/03/07 03:45:44;;;;;;;;;;;;;;;17.62;29.56;94348.47;10468405;28;3384;-52
2023/03/07 03:50:44;;;;;;;;;;;;;;;17.59;29.63;94346.44;10471107;28;3252;-55
2023/03/07 03:55:44;;;;;;;;;;;;;;;17.58;29.58;94338.84;10471021;28;3350;-50
2023/03/07 04:00:45;;;;;;;;;;;;;;;17.59;29.48;94340.41;10482731;28;3739;-51
2023/03/07 04:05:46;;;;;;;;;;;;;;;17.56;29.55;94328.66;10481943;28;3595;-51
2023/03/07 04:10:47;;;;;;;;;;;;;;;17.55;29.50;94327.13;10478236;28;2758;-53
2023/03/07 04:15:48;;;;;;;;;;;;;;;17.52;29.38;94319.81;10486207;28;3221;-51
2023/03/07 04:20:49;;;;;;;;;;;;;;;17.51;29.41;94320.91;10480440;28;3360;-49
2023/03/07 04:26:00;;;;;;;;;;;;;;;17.49;29.58;94320.41;10482461;28;3272;-54
2023/03/07 04:31:00;;;;;;;;;;;;;;;17.49;29.57;94328.25;10484807;28;2765;-50
2023/03/07 04:36:03;;;;;;;;;;;;;;;17.47;29.72;94317.28;10471509;28;2870;-54
2023/03/07 04:41:05;;;;;;;;;;;;;;;17.46;29.66;94310.47;10471335;28;2747;-49
2023/03/07 04:46:05;;;;;;;;;;;;;;;17.46;29.69;94307.84;10475671;28;3272;-52
2023/03/07 04:51:06;;;;;;;;;;;;;;;17.45;29.77;94319.41;10477304;28;3239;-49
2023/03/07 04:56:07;;;;;;;;;;;;;;;17.45;29.70;94303.69;10459701;28;3318;-53
2023/03/07 05:01:07;;;;;;;;;;;;;;;17.45;29.76;94308.91;10468106;28;3300;-53
2023/03/07 05:06:09;;;;;;;;;;;;;;;17.44;29.90;94312.59;10442576;28;3664;-50
2023/03/07 05:11:09;;;;;;;;;;;;;;;17.49;29.72;94315.16;10457129;28;3298;-53
2023/03/07 05:16:09;;;;;;;;;;;;;;;17.55;29.70;94324.50;10466944;28;3384;-51
2023/03/07 05:21:10;;;;;;;;;;;;;;;17.65;29.66;94321.69;10465115;28;2751;-53
2023/03/07 05:26:11;;;;;;;;;;;;;;;17.74;29.57;94321.81;10474711;28;3248;-53
2023/03/07 05:31:12;;;;;;;;;;;;;;;17.83;29.52;94317.44;10484423;28;2720;-51
2023/03/07 05:36:14;;;;;;;;;;;;;;;17.92;29.22;94312.28;10468712;28;2809;-55
2023/03/07 05:41:14;;;;;;;;;;;;;;;17.99;29.25;94312.69;10473745;28;2800;-52
2023/03/07 05:46:14;;;;;;;;;;;;;;;18.03;29.20;94314.47;10461274;28;2804;-52
2023/03/07 05:51:23;;;;;;;;;;;;;;;18.08;28.96;94318.81;10468810;28;3304;-54
2023/03/07 05:56:23;;;;;;;;;;;;;;;18.16;28.97;94318.91;10467784;28;3402;-53
2023/03/07 06:01:23;;;;;;;;;;;;;;;18.20;28.85;94314.63;10456156;28;3385;-51
2023/03/07 06:06:24;;;;;;;;;;;;;;;18.25;28.82;94322.41;10468316;28;3256;-54
2023/03/07 06:11:25;;;;;;;;;;;;;;;18.29;28.71;94314.72;10471712;28;2711;-52
2023/03/07 06:16:25;;;;;;;;;;;;;;;18.28;28.68;94315.81;10461585;28;3296;-54
2023/03/07 06:21:26;;;;;;;;;;;;;;;18.30;28.65;94316.28;10472275;28;2725;-55
2023/03/07 06:26:36;;;;;;;;;;;;;;;18.33;28.81;94315.69;10469410;28;2755;-55
2023/03/07 06:31:36;;;;;;;;;;;;;;;18.35;28.78;94318.78;10470361;28;3257;-53
2023/03/07 06:36:36;;;;;;;;;;;;;;;18.37;28.76;94319.28;10474137;28;2752;-51
2023/03/07 06:41:37;;;;;;;;;;;;;;;18.37;28.80;94319.28;10483930;28;3330;-59
2023/03/07 06:46:37;;;;;;;;;;;;;;;18.40;29.11;94316.06;10472865;28;3364;-56
2023/03/07 06:51:38;;;;;;;;;;;;;;;18.46;28.92;94314.94;10471334;28;3252;-56
2023/03/07 06:56:38;;;;;;;;;;;;;;;18.48;29.08;94320.66;10457370;28;3304;-57
2023/03/07 07:01:38;;;;;;;;;;;;;;;18.46;28.89;94322.81;10465595;28;3335;-55
2023/03/07 07:06:38;;;;;;;;;;;;;;;18.48;28.83;94326.69;10468583;28;3412;-56
2023/03/07 07:11:39;;;;;;;;;;;;;;;18.47;28.76;94324.34;10470459;28;3300;-55
2023/03/07 07:16:39;;;;;;;;;;;;;;;18.41;28.71;94320.25;10468536;28;3240;-54
2023/03/07 07:21:40;;;;;;;;;;;;;;;18.42;28.49;94319.19;10447986;28;3260;-57
2023/03/07 07:26:41;;;;;;;;;;;;;;;18.39;28.61;94320.53;10469891;28;2725;-56
2023/03/07 07:31:41;;;;;;;;;;;;;;;18.36;28.51;94312.50;10462808;28;3287;-55
2023/03/07 07:36:42;;;;;;;;;;;;;;;18.29;28.54;94301.59;10462153;28;3614;-51
2023/03/07 07:41:43;;;;;;;;;;;;;;;18.27;28.54;94309.00;10463368;28;3249;-54
2023/03/07 07:46:47;;;;;;;;;;;;;;;18.22;28.61;94301.22;10465142;28;3280;-56
2023/03/07 07:51:47;;;;;;;;;;;;;;;18.19;28.61;94302.59;10453054;28;3258;-55
2023/03/07 07:56:48;;;;;;;;;;;;;;;18.15;28.59;94296.38;10466643;28;3558;-56
2023/03/07 08:01:48;;;;;;;;;;;;;;;18.13;28.49;94300.38;10471077;28;2733;-52
2023/03/07 08:06:49;;;;;;;;;;;;;;;18.09;28.48;94291.53;10476454;28;3102;-55
2023/03/07 08:11:49;;;;;;;;;;;;;;;18.05;28.56;94296.59;10464333;28;3307;-55
2023/03/07 08:16:49;;;;;;;;;;;;;;;18.03;28.48;94293.47;10470639;28;3288;-56
2023/03/07 08:21:50;;;;;;;;;;;;;;;17.99;28.55;94283.88;10462557;28;2803;-56
2023/03/07 08:26:50;;;;;;;;;;;;;;;17.97;28.80;94280.75;10460334;28;3288;-56
2023/03/07 08:32:00;;;;;;;;;;;;;;;17.93;28.62;94280.53;10468672;28;3197;-54
2023/03/07 08:37:01;;;;;;;;;;;;;;;17.91;28.76;94277.44;10458691;28;3391;-54
2023/03/07 08:42:02;;;;;;;;;;;;;;;17.88;28.69;94275.41;10450953;28;3375;-57
2023/03/07 08:47:02;;;;;;;;;;;;;;;17.85;28.69;94270.75;10473397;28;2806;-56
2023/03/07 08:52:02;;;;;;;;;;;;;;;17.81;28.79;94267.94;10475089;28;2009;-56
2023/03/07 08:57:03;;;;;;;;;;;;;;;17.80;28.83;94273.47;10452530;28;1973;-55
2023/03/07 09:02:04;;;;;;;;;;;;;;;17.79;28.89;94272.69;10462994;28;1963;-55
2023/03/07 09:07:04;;;;;;;;;;;;;;;17.76;28.84;94268.00;10451866;28;2021;-55
2023/03/07 09:12:04;;;;;;;;;;;;;;;17.74;28.87;94267.53;10480847;28;1905;-56
2023/03/07 09:17:05;;;;;;;;;;;;;;;17.72;28.82;94253.94;10460722;28;2032;-56
2023/03/07 09:22:05;;;;;;;;;;;;;;;17.71;28.83;94260.25;10468043;28;2340;-56
2023/03/07 09:27:06;;;;;;;;;;;;;;;17.68;28.80;94245.09;10473136;28;2121;-54
2023/03/07 09:32:08;;;;;;;;;;;;;;;17.66;28.88;94254.34;10444767;28;1958;-53
2023/03/07 09:37:08;;;;;;;;;;;;;;;17.65;28.89;94232.59;10470763;28;1960;-53
2023/03/07 09:42:09;;;;;;;;;;;;;;;17.64;28.86;94238.13;10474652;28;2037;-54
2023/03/07 09:47:22;;;;;;;;;;;;;;;17.62;28.94;94235.03;10472143;28;1963;-53
2023/03/07 09:52:23;;;;;;;;;;;;;;;17.59;28.86;94231.16;10469987;28;1980;-54
2023/03/07 09:57:30;;;;;;;;;;;;;;;17.59;28.91;94212.03;10455420;28;2192;-55
2023/03/07 10:02:50;;;;;;;;;;;;;;;17.57;28.94;94199.22;10470622;28;1976;-55
2023/03/07 10:07:51;;;;;;;;;;;;;;;17.54;28.97;94199.78;10466110;28;2256;-56
2023/03/07 10:13:10;;;;;;;;;;;;;;;17.53;28.81;94187.78;10466259;28;1926;-53
2023/03/07 10:18:10;;;;;;;;;;;;;;;17.51;28.91;94184.66;10471146;28;1968;-54
2023/03/07 10:23:31;;;;;;;;;;;;;;;17.51;28.87;94183.88;10463182;28;1989;-55
2023/03/07 10:28:32;;;;;;;;;;;;;;;17.49;28.94;94176.31;10463139;28;1972;-53
2023/03/07 10:33:33;;;;;;;;;;;;;;;17.48;28.79;94164.25;10464408;28;2061;-54
2023/03/07 10:38:36;;;;;;;;;;;;;;;17.48;28.84;94156.38;10468207;28;1996;-54
2023/03/07 10:43:37;;;;;;;;;;;;;;;17.48;28.81;94138.06;10451442;28;2019;-54
2023/03/07 10:48:38;;;;;;;;;;;;;;;17.47;28.96;94143.59;10448123;28;2072;-54
2023/03/07 10:53:39;;;;;;;;;;;;;;;17.48;29.01;94132.03;10466959;28;2009;-52
2023/03/07 10:58:57;;;;;;;;;;;;;;;17.47;28.98;94125.25;10462696;28;1952;-55
2023/03/07 11:04:16;;;;;;;;;;;;;;;17.46;28.92;94116.63;10464031;28;2048;-55
2023/03/07 11:09:30;;;;;;;;;;;;;;;17.46;29.07;94105.34;10460231;28;2043;-53
2023/03/07 11:14:30;;;;;;;;;;;;;;;17.46;29.08;94100.13;10457947;28;1977;-55
2023/03/07 11:19:38;;;;;;;;;;;;;;;17.45;29.11;94081.03;10468382;28;1956;-55
2023/03/07 11:24:39;;;;;;;;;;;;;;;17.46;29.10;94085.19;10460793;28;1978;-56
2023/03/07 11:29:41;;;;;;;;;;;;;;;17.45;29.09;94081.03;10477526;28;2040;-56
2023/03/07 11:34:48;;;;;;;;;;;;;;;17.44;29.12;94078.69;10464463;28;2055;-54
2023/03/07 11:39:52;;;;;;;;;;;;;;;17.44;29.12;94055.88;10469122;28;1960;-53
2023/03/07 11:45:17;;;;;;;;;;;;;;;17.42;29.20;94058.03;10469414;28;1993;-54
2023/03/07 11:50:29;;;;;;;;;;;;;;;17.42;29.21;94058.03;10446767;28;2014;-55
2023/03/07 11:55:45;;;;;;;;;;;;;;;17.43;29.11;94051.72;10457982;28;2064;-54
2023/03/07 12:00:57;;;;;;;;;;;;;;;17.44;29.12;94034.94;10464987;28;1928;-54
2023/03/07 12:05:57;;;;;;;;;;;;;;;17.44;29.30;94037.56;10476502;28;1991;-54
2023/03/07 12:11:10;;;;;;;;;;;;;;;17.43;29.30;94015.06;10484639;28;2158;-54
2023/03/07 12:16:12;;;;;;;;;;;;;;;17.43;29.44;94012.44;10468796;28;2036;-54
2023/03/07 12:21:21;;;;;;;;;;;;;;;17.43;29.48;94009.81;10478975;28;2075;-55
2023/03/07 12:26:32;;;;;;;;;;;;;;;17.45;29.46;93999.03;10479117;28;2008;-54
2023/03/07 12:31:36;;;;;;;;;;;;;;;17.45;29.54;93970.22;10496979;28;1916;-55
2023/03/07 12:37:03;;;;;;;;;;;;;;;17.45;29.70;93972.84;10451876;28;2122;-53
2023/03/07 12:42:10;;;;;;;;;;;;;;;17.44;29.75;93982.53;10476736;28;2115;-52
2023/03/07 12:47:31;;;;;;;;;;;;;;;17.45;29.74;93981.50;10465888;28;1976;-53
2023/03/07 12:52:37;;;;;;;;;;;;;;;17.45;29.75;93978.88;10494426;28;1955;-54
2023/03/07 12:57:39;;;;;;;;;;;;;;;17.47;29.84;93968.88;10483254;28;1993;-51
2023/03/07 13:02:42;;;;;;;;;;;;;;;17.49;29.77;93974.63;10451228;28;2122;-53
2023/03/07 13:07:43;;;;;;;;;;;;;;;17.48;29.67;93975.66;10472673;28;2016;-53
2023/03/07 13:12:43;;;;;;;;;;;;;;;17.50;29.61;93968.28;10463994;28;2198;-54
2023/03/07 13:17:43;;;;;;;;;;;;;;;17.50;29.61;93968.28;10460776;28;2007;-54
2023/03/07 13:22:43;;;;;;;;;;;;;;;17.51;29.72;93964.63;10471722;28;2393;-54
2023/03/07 13:27:47;;;;;;;;;;;;;;;17.51;29.63;93962.00;10477860;28;2077;-54
2023/03/07 13:32:50;;;;;;;;;;;;;;;17.52;29.62;93963.53;10472985;28;1959;-54
2023/03/07 13:37:55;;;;;;;;;;;;;;;17.50;29.82;93949.97;10489452;28;2031;-54
2023/03/07 13:42:56;;;;;;;;;;;;;;;17.51;29.70;93943.66;10455196;28;2008;-53
2023/03/07 13:47:56;;;;;;;;;;;;;;;17.50;29.79;93934.25;10474330;28;1940;-53
2023/03/07 13:52:56;;;;;;;;;;;;;;;17.50;29.71;93918.53;10479933;28;1880;-55
2023/03/07 13:57:57;;;;;;;;;;;;;;;17.49;29.96;93922.22;10476587;28;1963;-54
2023/03/07 14:03:09;;;;;;;;;;;;;;;17.49;29.81;93906.50;10476551;28;1936;-53
2023/03/07 14:08:10;;;;;;;;;;;;;;;17.50;29.78;93915.91;10447665;28;1977;-55
2023/03/07 14:13:20;;;;;;;;;;;;;;;17.51;29.75;93898.34;10452150;28;2044;-55
2023/03/07 14:18:24;;;;;;;;;;;;;;;17.50;29.59;93908.03;10466246;28;2054;-54
2023/03/07 14:23:34;;;;;;;;;;;;;;;17.51;29.73;93904.38;10464481;28;1959;-52
2023/03/07 14:28:35;;;;;;;;;;;;;;;17.52;29.68;93890.19;10470881;28;2036;-55
2023/03/07 14:33:40;;;;;;;;;;;;;;;17.52;29.67;93903.28;10467090;28;2127;-53
2023/03/07 14:38:47;;;;;;;;;;;;;;;17.54;29.92;93901.13;10467726;28;1966;-55
2023/03/07 14:43:47;;;;;;;;;;;;;;;17.58;29.80;93901.31;10454566;28;1923;-53
2023/03/07 14:48:54;;;;;;;;;;;;;;;17.65;29.76;93902.44;10464491;28;2040;-54
2023/03/07 14:53:55;;;;;;;;;;;;;;;17.72;29.81;93910.66;10467363;28;2070;-56
2023/03/07 14:58:56;;;;;;;;;;;;;;;17.83;29.68;93908.56;10450621;28;2071;-55
2023/03/07 15:03:57;;;;;;;;;;;;;;;17.92;29.72;93904.16;10452132;28;1984;-54
2023/03/07 15:09:00;;;;;;;;;;;;;;;18.00;29.62;93900.78;10463262;28;2079;-50
2023/03/07 15:14:07;;;;;;;;;;;;;;;18.10;29.60;93892.66;10456088;28;1973;-54
2023/03/07 15:19:08;;;;;;;;;;;;;;;18.19;29.47;93905.81;10462752;28;2059;-54
2023/03/07 15:24:14;;;;;;;;;;;;;;;18.26;29.58;93898.31;10474108;28;2016;-55
2023/03/07 15:29:15;;;;;;;;;;;;;;;18.33;29.54;93906.50;10467159;28;1952;-55
2023/03/07 15:34:20;;;;;;;;;;;;;;;18.40;29.47;93904.97;10461479;28;1980;-55
2023/03/07 15:39:23;;;;;;;;;;;;;;;18.44;29.43;93903.31;10454191;28;1963;-53
2023/03/07 15:44:23;;;;;;;;;;;;;;;18.49;29.40;93910.28;10456363;28;1971;-55
2023/03/07 15:49:29;;;;;;;;;;;;;;;18.54;29.38;93899.66;10460922;28;2010;-54
2023/03/07 15:54:38;;;;;;;;;;;;;;;18.58;29.28;93901.38;10460710;28;1962;-55
2023/03/07 15:59:43;;;;;;;;;;;;;;;18.63;29.40;93916.19;10443228;28;2041;-52
2023/03/07 16:04:43;;;;;;;;;;;;;;;18.66;29.25;93920.84;10468224;28;2060;-53
2023/03/07 16:09:44;;;;;;;;;;;;;;;18.72;29.17;93924.06;10471910;28;2019;-52
2023/03/07 16:14:45;;;;;;;;;;;;;;;18.74;29.12;93927.16;10467302;28;2115;-53
2023/03/07 16:19:46;;;;;;;;;;;;;;;18.76;29.11;93938.13;10464021;28;1911;-55
2023/03/07 16:24:47;;;;;;;;;;;;;;;18.74;29.13;93946.31;10458454;28;2095;-54
2023/03/07 16:29:48;;;;;;;;;;;;;;;18.75;29.05;93947.88;10478309;28;2019;-54
2023/03/07 16:34:48;;;;;;;;;;;;;;;18.75;29.09;93949.72;10475016;28;1992;-53
2023/03/07 16:39:49;;;;;;;;;;;;;;;18.74;29.06;93956.81;10470931;28;1905;-56
2023/03/07 16:44:49;;;;;;;;;;;;;;;18.73;29.08;93957.13;10469642;28;2031;-55
2023/03/07 16:49:50;;;;;;;;;;;;;;;18.75;28.98;93957.59;10454195;28;1967;-56
2023/03/07 16:54:50;;;;;;;;;;;;;;;18.74;28.97;93956.03;10472451;28;2007;-54
2023/03/07 16:59:52;;;;;;;;;;;;;;;18.74;28.91;93964.69;10468983;28;1923;-53
2023/03/07 17:04:55;;;;;;;;;;;;;;;18.74;29.06;93962.06;10466230;28;2174;-55
2023/03/07 17:09:57;;;;;;;;;;;;;;;18.73;29.02;93965.78;10464749;28;1959;-53
2023/03/07 17:14:59;;;;;;;;;;;;;;;18.75;28.97;93979.38;10444543;28;2033;-50
2023/03/07 17:20:00;;;;;;;;;;;;;;;18.76;28.96;93975.66;10460625;28;2106;-55
2023/03/07 17:25:00;;;;;;;;;;;;;;;18.79;29.05;93987.41;10473116;28;1955;-53
2023/03/07 17:30:01;;;;;;;;;;;;;;;18.81;28.91;93999.16;10468198;28;2059;-55
2023/03/07 17:35:02;;;;;;;;;;;;;;;18.85;29.02;94000.09;10465786;28;2048;-55
2023/03/07 17:40:08;;;;;;;;;;;;;;;18.87;28.88;94011.06;10446430;28;1931;-53
2023/03/07 17:45:10;;;;;;;;;;;;;;;18.89;29.00;94018.63;10470638;28;2050;-55
2023/03/07 17:50:11;;;;;;;;;;;;;;;18.94;28.84;94034.28;10462826;28;1991;-51
2023/03/07 17:55:13;;;;;;;;;;;;;;;18.93;28.97;94044.00;10467094;28;1995;-54
2023/03/07 18:00:14;;;;;;;;;;;;;;;18.96;29.03;94047.88;10477702;28;1964;-55
2023/03/07 18:05:25;;;;;;;;;;;;;;;18.98;29.14;94051.72;10470880;28;2096;-55
2023/03/07 18:10:35;;;;;;;;;;;;;;;19.02;29.13;94067.66;10470945;28;1975;-52
2023/03/07 18:15:39;;;;;;;;;;;;;;;19.03;29.17;94069.19;10475760;28;1980;-54
2023/03/07 18:20:39;;;;;;;;;;;;;;;19.04;29.37;94071.50;10472403;28;1956;-56
2023/03/07 18:25:40;;;;;;;;;;;;;;;19.06;29.54;94076.47;10478435;28;1964;-53
2023/03/07 18:31:00;;;;;;;;;;;;;;;19.07;29.44;94076.16;10484803;28;2166;-54
2023/03/07 18:36:11;;;;;;;;;;;;;;;19.10;29.47;94080.78;10484681;28;2000;-53
2023/03/07 18:41:22;;;;;;;;;;;;;;;19.12;29.64;94093.66;10475578;28;1920;-52
2023/03/07 18:46:23;;;;;;;;;;;;;;;19.10;29.65;94093.94;10473081;28;2087;-52
2023/03/07 18:51:25;;;;;;;;;;;;;;;19.14;29.72;94091.50;10472740;28;1990;-52
2023/03/07 18:56:26;;;;;;;;;;;;;;;19.17;30.70;94091.66;10472699;28;2044;-54
2023/03/07 19:01:28;;;;;;;;;;;;;;;19.26;31.53;94094.31;10456816;28;2006;-51
2023/03/07 19:06:32;;;;;;;;;;;;;;;19.29;31.70;94093.69;10468924;28;2028;-50
2023/03/07 19:11:34;;;;;;;;;;;;;;;19.34;31.87;94099.63;10466528;28;2013;-55
2023/03/07 19:16:35;;;;;;;;;;;;;;;19.37;32.12;94106.13;10467579;28;1975;-52
2023/03/07 19:21:35;;;;;;;;;;;;;;;19.39;32.07;94109.97;10470730;28;1960;-55
2023/03/07 19:26:35;;;;;;;;;;;;;;;19.41;32.31;94123.59;10467214;28;1967;-52
2023/03/07 19:31:37;;;;;;;;;;;;;;;19.41;32.42;94115.69;10471643;28;2039;-52
2023/03/07 19:36:37;;;;;;;;;;;;;;;19.46;32.46;94120.03;10464167;28;1898;-52
2023/03/07 19:41:39;;;;;;;;;;;;;;;19.45;32.46;94129.03;10479155;28;1936;-54
2023/03/07 19:46:44;;;;;;;;;;;;;;;19.44;32.34;94133.50;10446648;28;2018;-49
2023/03/07 19:51:45;;;;;;;;;;;;;;;19.43;32.03;94158.22;10466485;28;2006;-54
2023/03/07 19:56:46;;;;;;;;;;;;;;;19.42;31.98;94161.16;10463478;28;1972;-55
2023/03/07 20:01:47;;;;;;;;;;;;;;;19.42;31.73;94171.66;10457594;28;1917;-55
2023/03/07 20:06:47;;;;;;;;;;;;;;;19.42;31.83;94164.56;10462451;28;2042;-55
2023/03/07 20:11:48;;;;;;;;;;;;;;;19.40;31.52;94174.59;10466255;28;2081;-53
2023/03/07 20:16:58;;;;;;;;;;;;;;;19.41;31.60;94170.13;10453766;28;1947;-53
2023/03/07 20:21:59;;;;;;;;;;;;;;;19.43;31.30;94178.47;10449676;28;1960;-55
2023/03/07 20:27:09;;;;;;;;;;;;;;;19.43;31.15;94176.59;10475139;28;1964;-52
2023/03/07 20:32:11;;;;;;;;;;;;;;;19.44;31.16;94174.75;10469669;28;2126;-52
2023/03/07 20:37:11;;;;;;;;;;;;;;;19.44;31.07;94180.00;10467701;28;1999;-54
2023/03/07 20:42:12;;;;;;;;;;;;;;;19.42;31.14;94177.69;10471457;28;1999;-51
2023/03/07 20:47:13;;;;;;;;;;;;;;;19.41;31.09;94191.91;10474643;28;1988;-53
2023/03/07 20:52:14;;;;;;;;;;;;;;;19.37;31.10;94188.31;10475000;28;2034;-53
2023/03/07 20:57:15;;;;;;;;;;;;;;;19.34;31.08;94194.22;10477361;28;1940;-51
2023/03/07 21:02:16;;;;;;;;;;;;;;;19.29;31.06;94198.75;10474086;28;1980;-50
2023/03/07 21:07:17;;;;;;;;;;;;;;;19.26;31.13;94202.78;10474028;28;1991;-54
2023/03/07 21:12:18;;;;;;;;;;;;;;;19.21;31.16;94195.03;10455828;28;1977;-53
2023/03/07 21:17:19;;;;;;;;;;;;;;;19.17;31.42;94207.22;10477560;28;1965;-53
2023/03/07 21:22:19;;;;;;;;;;;;;;;19.14;31.50;94202.59;10487074;28;1927;-54
2023/03/07 21:27:20;;;;;;;;;;;;;;;19.09;31.47;94209.78;10469952;28;1917;-50
2023/03/07 21:32:31;;;;;;;;;;;;;;;19.03;31.50;94198.66;10468365;28;1963;-53
2023/03/07 21:37:34;;;;;;;;;;;;;;;19.01;31.44;94202.63;10469247;28;2049;-50
2023/03/07 21:42:40;;;;;;;;;;;;;;;18.95;31.61;94199.38;10471792;28;2046;-55
2023/03/07 21:47:40;;;;;;;;;;;;;;;18.94;31.96;94228.56;10476649;28;1980;-55
2023/03/07 21:52:51;;;;;;;;;;;;;;;18.93;32.00;94229.63;10470040;28;2012;-49
2023/03/07 21:57:52;;;;;;;;;;;;;;;18.90;31.93;94235.50;10466135;28;1976;-54
2023/03/07 22:02:52;;;;;;;;;;;;;;;18.82;31.92;94231.72;10468299;28;2052;-54
2023/03/07 22:07:53;;;;;;;;;;;;;;;18.77;31.94;94234.47;10469035;28;2012;-56
2023/03/07 22:12:54;;;;;;;;;;;;;;;18.76;31.88;94232.91;10454570;28;2109;-54
2023/03/07 22:17:54;;;;;;;;;;;;;;;18.72;31.79;94239.81;10469376;28;2015;-54
2023/03/07 22:22:54;;;;;;;;;;;;;;;18.69;32.00;94248.31;10464243;28;1964;-55
2023/03/07 22:27:55;;;;;;;;;;;;;;;18.65;31.71;94242.06;10477130;28;1913;-55
2023/03/07 22:32:56;;;;;;;;;;;;;;;18.62;31.75;94242.69;10469676;28;2032;-56
2023/03/07 22:37:56;;;;;;;;;;;;;;;18.60;31.65;94250.84;10470989;28;1981;-54
2023/03/07 22:42:56;;;;;;;;;;;;;;;18.57;31.75;94254.06;10468605;28;2039;-56
2023/03/07 22:48:03;;;;;;;;;;;;;;;18.54;31.84;94262.53;10460233;28;2014;-52
2023/03/07 22:53:03;;;;;;;;;;;;;;;18.53;31.70;94252.31;10471419;28;1992;-54
2023/03/07 22:58:05;;;;;;;;;;;;;;;18.48;31.74;94253.22;10442537;28;2036;-54
2023/03/07 23:03:06;;;;;;;;;;;;;;;18.47;31.57;94245.63;10464341;28;1996;-54
2023/03/07 23:08:06;;;;;;;;;;;;;;;18.44;31.55;94248.88;10464297;28;1929;-54
2023/03/07 23:13:07;;;;;;;;;;;;;;;18.41;31.49;94262.53;10476395;28;1947;-52
2023/03/07 23:18:08;;;;;;;;;;;;;;;18.39;31.56;94267.28;10461739;28;2102;-54
2023/03/07 23:23:08;;;;;;;;;;;;;;;18.37;31.49;94279.94;10465191;28;1972;-54
2023/03/07 23:28:09;;;;;;;;;;;;;;;18.33;31.48;94281.59;10469341;28;2031;-55
2023/03/07 23:33:10;;;;;;;;;;;;;;;18.32;31.51;94285.28;10465188;28;2059;-53
2023/03/07 23:38:11;;;;;;;;;;;;;;;18.29;31.39;94297.16;10475621;28;2032;-53
2023/03/07 23:43:12;;;;;;;;;;;;;;;18.27;31.24;94309.00;10462617;28;2083;-53
2023/03/07 23:48:12;;;;;;;;;;;;;;;18.26;31.39;94307.47;10474438;28;2123;-55
2023/03/07 23:53:13;;;;;;;;;;;;;;;18.23;31.35;94319.31;10459798;28;1992;-51
2023/03/07 23:58:13;;;;;;;;;;;;;;;18.20;31.29;94313.84;10462457;28;2071;-54
